createdAt,value
2019-02-25T00:01:59.728Z,10.70
2019-02-25T00:04:31.407Z,9.17
2019-02-25T00:07:03.137Z,11.03
2019-02-25T00:09:34.792Z,10.87
2019-02-25T00:12:06.413Z,10.43
2019-02-25T00:14:38.048Z,10.70
2019-02-25T00:17:09.697Z,10.67
2019-02-25T00:19:41.347Z,10.47
2019-02-25T00:22:13.192Z,10.27
2019-02-25T00:24:45.533Z,9.80
2019-02-25T00:27:17.156Z,11.10
2019-02-25T00:29:49.007Z,11.20
2019-02-25T00:32:20.633Z,9.57
2019-02-25T00:34:52.318Z,11.07
2019-02-25T00:37:23.968Z,11.77
2019-02-25T00:39:55.629Z,11.93
2019-02-25T00:42:27.264Z,11.80
2019-02-25T00:44:58.915Z,11.43
2019-02-25T00:47:30.568Z,11.47
2019-02-25T00:50:02.450Z,11.47
2019-02-25T00:52:34.089Z,11.67
2019-02-25T00:55:06.076Z,10.90
2019-02-25T00:57:37.731Z,10.90
2019-02-25T01:00:11.579Z,11.40
2019-02-25T01:02:43.293Z,12.10
2019-02-25T01:05:15.425Z,10.43
2019-02-25T01:07:47.110Z,11.80
2019-02-25T01:10:19.059Z,13.23
2019-02-25T01:12:50.690Z,12.27
2019-02-25T01:15:22.350Z,12.77
2019-02-25T01:17:53.973Z,12.13
2019-02-25T01:20:25.610Z,12.03
2019-02-25T01:22:57.345Z,12.13
2019-02-25T01:25:28.991Z,11.33
2019-02-25T01:28:00.616Z,11.27
2019-02-25T01:30:32.365Z,10.60
2019-02-25T01:33:04.003Z,11.47
2019-02-25T01:35:35.848Z,11.10
2019-02-25T01:38:07.468Z,11.47
2019-02-25T01:40:39.121Z,11.20
2019-02-25T01:43:10.755Z,11.90
2019-02-25T01:45:42.398Z,10.47
2019-02-25T01:48:14.021Z,12.73
2019-02-25T01:50:45.673Z,11.83
2019-02-25T01:53:17.293Z,11.90
2019-02-25T01:55:48.978Z,13.10
2019-02-25T01:58:20.617Z,12.77
2019-02-25T02:00:52.293Z,12.23
2019-02-25T02:03:23.900Z,11.67
2019-02-25T02:05:55.550Z,13.00
2019-02-25T02:08:27.178Z,13.40
2019-02-25T02:10:58.801Z,13.67
2019-02-25T02:13:30.448Z,13.60
2019-02-25T02:16:02.107Z,14.33
2019-02-25T02:18:33.725Z,13.03
2019-02-25T02:21:05.373Z,13.47
2019-02-25T02:23:36.989Z,13.50
2019-02-25T02:26:08.870Z,12.70
2019-02-25T02:28:40.482Z,13.30
2019-02-25T02:31:12.126Z,12.20
2019-02-25T02:33:43.747Z,13.03
2019-02-25T02:36:15.385Z,13.53
2019-02-25T02:38:47.137Z,12.60
2019-02-25T02:41:18.865Z,12.13
2019-02-25T02:43:50.610Z,13.33
2019-02-25T02:46:44.621Z,12.57
2019-02-25T02:49:16.239Z,13.40
2019-02-25T02:51:47.885Z,12.57
2019-02-25T02:54:22.192Z,12.60
2019-02-25T02:56:53.893Z,13.30
2019-02-25T02:59:25.522Z,12.40
2019-02-25T03:01:57.175Z,12.57
2019-02-25T03:04:28.797Z,14.13
2019-02-25T03:07:00.437Z,14.67
2019-02-25T03:09:32.160Z,14.20
2019-02-25T03:12:03.794Z,14.13
2019-02-25T03:14:36.121Z,14.27
2019-02-25T03:17:07.775Z,14.97
2019-02-25T03:19:39.390Z,13.17
2019-02-25T03:22:11.049Z,12.83
2019-02-25T03:24:42.775Z,13.47
2019-02-25T03:27:14.436Z,13.57
2019-02-25T03:29:46.066Z,13.70
2019-02-25T03:32:17.731Z,13.23
2019-02-25T03:34:49.358Z,12.73
2019-02-25T03:37:21.007Z,13.50
2019-02-25T03:39:52.635Z,13.47
2019-02-25T03:42:24.376Z,14.20
2019-02-25T03:44:56.024Z,13.83
2019-02-25T03:47:27.674Z,14.37
2019-02-25T03:49:59.291Z,12.47
2019-02-25T03:52:30.946Z,12.70
2019-02-25T03:55:03.522Z,12.27
2019-02-25T03:57:36.182Z,14.43
2019-02-25T04:00:11.216Z,13.73
2019-02-25T04:02:42.971Z,13.97
2019-02-25T04:05:14.585Z,14.43
2019-02-25T04:07:46.270Z,14.67
2019-02-25T04:10:18.089Z,13.97
2019-02-25T04:12:49.721Z,13.30
2019-02-25T04:15:24.110Z,13.43
2019-02-25T04:17:55.831Z,14.43
2019-02-25T04:20:27.450Z,14.30
2019-02-25T04:22:59.106Z,14.30
2019-02-25T04:25:30.755Z,13.67
2019-02-25T04:28:02.434Z,13.40
2019-02-25T04:30:34.061Z,14.23
2019-02-25T04:33:05.709Z,15.93
2019-02-25T04:35:37.348Z,14.23
2019-02-25T04:38:09.005Z,14.47
2019-02-25T04:40:40.621Z,14.00
2019-02-25T04:43:12.285Z,14.43
2019-02-25T04:45:43.915Z,14.07
2019-02-25T04:48:15.552Z,14.87
2019-02-25T04:50:47.192Z,13.87
2019-02-25T04:53:18.853Z,15.57
2019-02-25T04:55:50.511Z,14.33
2019-02-25T04:58:22.159Z,14.03
2019-02-25T05:00:53.798Z,14.97
2019-02-25T05:03:25.422Z,14.30
2019-02-25T05:05:58.758Z,14.60
2019-02-25T05:08:30.401Z,12.57
2019-02-25T05:11:02.037Z,14.90
2019-02-25T05:13:33.679Z,13.67
2019-02-25T05:16:05.334Z,14.90
2019-02-25T05:18:37.219Z,14.07
2019-02-25T05:21:08.856Z,14.67
2019-02-25T05:23:40.606Z,13.57
2019-02-25T05:26:12.230Z,14.97
2019-02-25T05:28:43.929Z,15.93
2019-02-25T05:31:15.563Z,15.37
2019-02-25T05:33:47.204Z,16.03
2019-02-25T05:36:18.832Z,15.77
2019-02-25T05:38:50.478Z,14.50
2019-02-25T05:41:30.305Z,16.90
2019-02-25T05:44:01.937Z,15.83
2019-02-25T05:46:33.566Z,16.07
2019-02-25T05:49:05.204Z,15.93
2019-02-25T05:51:36.929Z,16.43
2019-02-25T05:54:08.573Z,15.43
2019-02-25T05:56:40.204Z,15.83
2019-02-25T05:59:11.869Z,17.47
2019-02-25T06:01:43.537Z,18.73
2019-02-25T06:04:15.256Z,16.80
2019-02-25T06:06:46.891Z,16.60
2019-02-25T06:09:18.590Z,17.63
2019-02-25T06:11:50.370Z,17.93
2019-02-25T06:14:22.011Z,17.57
2019-02-25T06:16:53.668Z,17.03
2019-02-25T06:19:25.319Z,16.83
2019-02-25T06:21:56.942Z,17.13
2019-02-25T06:24:28.628Z,16.60
2019-02-25T06:27:00.245Z,17.40
2019-02-25T06:29:31.932Z,17.23
2019-02-25T06:32:03.549Z,17.23
2019-02-25T06:34:35.202Z,16.37
2019-02-25T06:37:06.837Z,15.63
2019-02-25T06:39:38.502Z,15.27
2019-02-25T06:42:10.131Z,15.90
2019-02-25T06:44:41.880Z,14.93
2019-02-25T06:47:13.595Z,15.50
2019-02-25T06:49:45.238Z,15.13
2019-02-25T06:52:16.968Z,15.17
2019-02-25T06:54:48.617Z,16.03
2019-02-25T06:57:20.286Z,14.67
2019-02-25T06:59:51.915Z,14.27
2019-02-25T07:02:23.554Z,14.50
2019-02-25T07:05:16.154Z,14.33
2019-02-25T07:07:48.740Z,13.10
2019-02-25T07:10:36.757Z,15.20
2019-02-25T07:13:22.420Z,16.23
2019-02-25T07:16:13.791Z,16.23
2019-02-25T07:19:03.741Z,15.37
2019-02-25T07:21:52.652Z,14.03
2019-02-25T07:24:38.988Z,16.00
2019-02-25T07:27:18.586Z,13.80
2019-02-25T07:30:24.704Z,15.40
2019-02-25T07:33:04.836Z,14.40
2019-02-25T07:35:59.126Z,14.20
2019-02-25T07:38:39.657Z,13.03
2019-02-25T07:41:24.864Z,13.77
2019-02-25T07:44:25.016Z,12.93
2019-02-25T07:47:08.928Z,13.83
2019-02-25T07:49:48.663Z,11.80
2019-02-25T07:52:38.730Z,12.97
2019-02-25T07:55:31.414Z,14.33
2019-02-25T07:58:14.675Z,13.80
2019-02-25T08:00:50.401Z,13.43
2019-02-25T08:03:36.201Z,13.53
2019-02-25T08:06:13.446Z,13.90
2019-02-25T08:09:03.522Z,14.37
2019-02-25T08:11:53.179Z,14.97
2019-02-25T08:14:33.365Z,14.70
2019-02-25T08:17:12.000Z,15.73
2019-02-25T08:19:54.253Z,15.57
2019-02-25T08:22:33.290Z,15.40
2019-02-25T08:25:23.880Z,16.37
2019-02-25T08:28:20.705Z,16.03
2019-02-25T08:31:10.765Z,15.67
2019-02-25T08:33:51.909Z,15.50
2019-02-25T08:37:26.355Z,15.97
2019-02-25T08:40:30.687Z,16.57
2019-02-25T08:43:15.729Z,16.27
2019-02-25T08:45:55.310Z,17.23
2019-02-25T08:48:33.853Z,16.35
2019-02-25T08:51:05.582Z,16.65
2019-02-25T08:53:37.213Z,16.75
2019-02-25T08:56:08.842Z,18.98
2019-02-25T08:58:42.667Z,17.65
2019-02-25T09:01:15.484Z,17.00
2019-02-25T09:03:47.292Z,18.12
2019-02-25T09:06:19.213Z,18.73
2019-02-25T09:08:50.930Z,18.48
2019-02-25T09:11:22.541Z,17.55
2019-02-25T09:13:54.189Z,17.77
2019-02-25T09:16:25.822Z,18.37
2019-02-25T09:18:57.989Z,18.45
2019-02-25T09:21:32.094Z,18.00
2019-02-25T09:24:03.226Z,18.90
2019-02-25T09:26:34.842Z,17.20
2019-02-25T09:29:06.506Z,18.45
2019-02-25T09:31:38.157Z,18.98
2019-02-25T09:34:11.739Z,20.77
2019-02-25T09:36:43.322Z,18.90
2019-02-25T09:39:16.700Z,20.17
2019-02-25T09:41:48.564Z,18.12
2019-02-25T09:44:20.206Z,18.75
2019-02-25T09:46:51.850Z,20.62
2019-02-25T09:49:23.509Z,19.73
2019-02-25T09:51:55.173Z,19.15
2019-02-25T09:54:26.831Z,20.65
2019-02-25T09:56:58.464Z,20.05
2019-02-25T09:59:30.117Z,20.43
2019-02-25T10:02:01.743Z,20.50
2019-02-25T10:04:33.381Z,20.75
2019-02-25T10:07:05.018Z,20.70
2019-02-25T10:09:36.699Z,22.35
2019-02-25T10:12:08.329Z,23.52
2019-02-25T10:14:39.984Z,23.92
2019-02-25T10:17:11.640Z,22.60
2019-02-25T10:19:43.286Z,22.77
2019-02-25T10:22:14.938Z,23.40
2019-02-25T10:24:46.598Z,23.98
2019-02-25T10:27:18.499Z,22.80
2019-02-25T10:29:50.129Z,22.37
2019-02-25T10:32:23.243Z,25.70
2019-02-25T10:34:55.340Z,24.85
2019-02-25T10:37:26.961Z,26.48
2019-02-25T10:39:58.647Z,25.17
2019-02-25T10:42:31.567Z,27.58
2019-02-25T10:45:06.823Z,25.70
2019-02-25T10:47:38.693Z,23.20
2019-02-25T10:50:10.626Z,24.12
2019-02-25T10:52:42.934Z,23.90
2019-02-25T10:55:28.031Z,26.35
2019-02-25T10:58:01.447Z,26.00
2019-02-25T11:00:35.206Z,25.57
2019-02-25T11:03:07.974Z,26.48
2019-02-25T11:05:39.633Z,26.07
2019-02-25T11:08:13.898Z,25.00
2019-02-25T11:10:53.203Z,24.87
2019-02-25T11:13:27.437Z,23.95
2019-02-25T11:15:59.436Z,26.62
2019-02-25T11:18:31.166Z,25.95
2019-02-25T11:21:03.622Z,25.35
2019-02-25T11:23:36.678Z,24.95
2019-02-25T11:26:09.399Z,26.52
2019-02-25T11:28:43.606Z,25.72
2019-02-25T11:31:15.389Z,23.87
2019-02-25T11:33:48.369Z,25.43
2019-02-25T11:36:21.923Z,25.62
2019-02-25T11:38:53.638Z,25.62
2019-02-25T11:41:25.553Z,25.88
2019-02-25T11:43:57.184Z,24.67
2019-02-25T11:46:29.037Z,26.00
2019-02-25T11:49:00.680Z,24.35
2019-02-25T11:51:32.432Z,22.35
2019-02-25T11:54:04.079Z,23.00
2019-02-25T11:56:35.760Z,22.70
2019-02-25T11:59:07.378Z,21.85
2019-02-25T12:01:39.049Z,22.62
2019-02-25T12:04:10.802Z,22.73
2019-02-25T12:06:42.444Z,22.15
2019-02-25T12:09:14.201Z,21.70
2019-02-25T12:11:45.854Z,20.68
2019-02-25T12:14:17.537Z,21.40
2019-02-25T12:16:49.297Z,21.37
2019-02-25T12:19:20.923Z,22.00
2019-02-25T12:21:52.576Z,21.80
2019-02-25T12:24:24.214Z,21.57
2019-02-25T12:26:55.858Z,22.62
2019-02-25T12:29:27.513Z,21.37
2019-02-25T12:31:59.254Z,21.73
2019-02-25T12:34:30.901Z,21.87
2019-02-25T12:37:02.670Z,22.13
2019-02-25T12:39:34.294Z,22.07
2019-02-25T12:42:05.950Z,21.62
2019-02-25T12:44:37.602Z,22.52
2019-02-25T12:47:09.236Z,20.85
2019-02-25T12:49:40.877Z,21.97
2019-02-25T12:52:12.534Z,20.68
2019-02-25T12:54:44.157Z,21.17
2019-02-25T12:57:15.798Z,23.42
2019-02-25T12:59:47.424Z,20.52
2019-02-25T13:02:19.052Z,20.80
2019-02-25T13:04:50.710Z,20.23
2019-02-25T13:07:22.493Z,20.17
2019-02-25T13:09:54.111Z,19.75
2019-02-25T13:12:25.773Z,18.45
2019-02-25T13:14:57.401Z,19.60
2019-02-25T13:17:29.091Z,20.32
2019-02-25T13:20:00.770Z,17.90
2019-02-25T13:22:32.473Z,18.85
2019-02-25T13:25:05.990Z,19.55
2019-02-25T13:27:38.781Z,18.80
2019-02-25T13:30:12.310Z,17.07
2019-02-25T13:32:43.967Z,19.42
2019-02-25T13:35:15.705Z,21.05
2019-02-25T13:37:47.488Z,18.55
2019-02-25T13:40:19.225Z,16.35
2019-02-25T13:42:50.984Z,18.65
2019-02-25T13:45:22.705Z,17.27
2019-02-25T13:47:54.494Z,16.97
2019-02-25T13:50:26.227Z,16.12
2019-02-25T13:52:58.027Z,14.68
2019-02-25T13:55:29.746Z,15.68
2019-02-25T13:58:01.633Z,15.05
2019-02-25T14:00:33.577Z,15.15
2019-02-25T14:03:05.445Z,15.73
2019-02-25T14:05:37.173Z,15.77
2019-02-25T14:08:08.926Z,16.03
2019-02-25T14:10:40.882Z,15.77
2019-02-25T14:13:12.725Z,14.47
2019-02-25T14:15:44.456Z,14.13
2019-02-25T14:18:16.233Z,13.43
2019-02-25T14:20:48.282Z,14.97
2019-02-25T14:23:20.331Z,13.90
2019-02-25T14:25:52.199Z,15.13
2019-02-25T14:28:23.945Z,13.23
2019-02-25T14:30:55.703Z,13.93
2019-02-25T14:33:27.468Z,14.63
2019-02-25T14:35:59.597Z,14.20
2019-02-25T14:38:32.317Z,15.00
2019-02-25T14:41:06.988Z,14.77
2019-02-25T14:43:46.165Z,14.33
2019-02-25T14:46:14.070Z,14.87
2019-02-25T14:48:45.898Z,13.73
2019-02-25T14:51:17.635Z,15.27
2019-02-25T14:53:51.656Z,13.60
2019-02-25T14:56:22.906Z,13.57
2019-02-25T14:58:54.873Z,13.37
2019-02-25T15:01:27.987Z,13.93
2019-02-25T15:04:02.285Z,14.17
2019-02-25T15:06:35.219Z,14.27
2019-02-25T15:09:10.390Z,13.60
2019-02-25T15:11:41.711Z,13.43
2019-02-25T15:14:14.776Z,14.40
2019-02-25T15:16:47.119Z,13.30
2019-02-25T15:19:18.892Z,13.97
2019-02-25T15:21:52.170Z,13.23
2019-02-25T15:24:24.146Z,13.53
2019-02-25T15:26:57.568Z,13.03
2019-02-25T15:29:29.604Z,14.00
2019-02-25T15:32:01.944Z,14.27
2019-02-25T15:34:33.814Z,12.83
2019-02-25T15:37:07.220Z,14.87
2019-02-25T15:39:41.858Z,15.93
2019-02-25T15:42:13.032Z,16.90
2019-02-25T15:44:47.239Z,14.90
2019-02-25T15:47:18.610Z,13.87
2019-02-25T15:49:50.441Z,14.43
2019-02-25T15:52:23.286Z,14.37
2019-02-25T15:54:55.840Z,14.40
2019-02-25T15:57:28.538Z,15.13
2019-02-25T16:00:01.214Z,14.30
2019-02-25T16:02:33.069Z,13.90
2019-02-25T16:05:07.844Z,13.90
2019-02-25T16:07:40.222Z,14.47
2019-02-25T16:10:13.990Z,15.33
2019-02-25T16:12:46.570Z,16.60
2019-02-25T16:15:19.141Z,17.10
2019-02-25T16:17:51.641Z,19.30
2019-02-25T16:20:24.141Z,14.93
2019-02-25T16:22:56.506Z,14.27
2019-02-25T16:25:30.464Z,17.13
2019-02-25T16:28:03.525Z,15.50
2019-02-25T16:30:35.556Z,14.93
2019-02-25T16:33:07.893Z,15.27
2019-02-25T16:35:41.193Z,16.40
2019-02-25T16:38:14.599Z,16.67
2019-02-25T16:40:46.440Z,17.60
2019-02-25T16:43:18.998Z,16.37
2019-02-25T16:45:51.098Z,15.37
2019-02-25T16:48:25.578Z,17.20
2019-02-25T16:50:56.383Z,16.60
2019-02-25T16:53:28.137Z,16.40
2019-02-25T16:55:59.874Z,16.73
2019-02-25T16:58:32.064Z,17.27
2019-02-25T17:01:05.996Z,16.97
2019-02-25T17:03:39.820Z,17.60
2019-02-25T17:06:14.001Z,16.87
2019-02-25T17:08:47.082Z,18.23
2019-02-25T17:11:20.085Z,18.60
2019-02-25T17:13:54.737Z,16.70
2019-02-25T17:16:26.665Z,20.93
2019-02-25T17:19:00.550Z,21.27
2019-02-25T17:21:31.942Z,24.50
2019-02-25T17:24:05.197Z,20.30
2019-02-25T17:26:37.126Z,20.47
2019-02-25T17:29:08.886Z,21.83
2019-02-25T17:31:40.884Z,21.23
2019-02-25T17:34:14.449Z,19.70
2019-02-25T17:36:47.376Z,18.53
2019-02-25T17:39:19.678Z,18.30
2019-02-25T17:41:51.429Z,19.67
2019-02-25T17:44:27.537Z,18.83
2019-02-25T17:47:00.192Z,18.70
2019-02-25T17:49:33.730Z,20.63
2019-02-25T17:52:06.265Z,18.40
2019-02-25T17:54:39.897Z,19.60
2019-02-25T17:57:11.933Z,18.73
2019-02-25T17:59:46.380Z,17.33
2019-02-25T18:02:18.943Z,18.47
2019-02-25T18:04:51.443Z,17.23
2019-02-25T18:07:25.175Z,16.87
2019-02-25T18:09:58.926Z,17.47
2019-02-25T18:12:31.900Z,19.47
2019-02-25T18:15:07.412Z,17.47
2019-02-25T18:17:42.601Z,16.77
2019-02-25T18:20:14.144Z,15.93
2019-02-25T18:22:45.977Z,17.07
2019-02-25T18:25:18.422Z,18.00
2019-02-25T18:27:51.967Z,16.73
2019-02-25T18:30:26.521Z,16.67
2019-02-25T18:33:00.390Z,24.07
2019-02-25T18:35:33.942Z,18.57
2019-02-25T18:38:08.946Z,17.10
2019-02-25T18:40:42.927Z,17.23
2019-02-25T18:43:13.207Z,16.57
2019-02-25T18:45:44.974Z,16.87
2019-02-25T18:48:17.382Z,15.40
2019-02-25T18:50:52.713Z,13.57
2019-02-25T18:53:25.021Z,13.00
2019-02-25T18:55:58.786Z,13.03
2019-02-25T18:58:31.104Z,13.87
2019-02-25T19:01:04.289Z,14.73
2019-02-25T19:03:36.806Z,15.40
2019-02-25T19:06:08.593Z,13.47
2019-02-25T19:08:43.262Z,14.17
2019-02-25T19:11:15.114Z,16.03
2019-02-25T19:13:49.759Z,17.47
2019-02-25T19:16:21.979Z,16.47
2019-02-25T19:18:54.402Z,17.43
2019-02-25T19:21:27.688Z,16.20
2019-02-25T19:24:03.370Z,16.20
2019-02-25T19:26:33.726Z,18.90
2019-02-25T19:29:05.578Z,20.60
2019-02-25T19:31:37.233Z,18.67
2019-02-25T19:34:10.556Z,18.80
2019-02-25T19:36:42.483Z,16.13
2019-02-25T19:39:15.004Z,15.87
2019-02-25T19:41:49.245Z,15.33
2019-02-25T19:44:21.597Z,15.47
2019-02-25T19:46:55.392Z,14.87
2019-02-25T19:49:27.172Z,14.97
2019-02-25T19:51:58.920Z,15.90
2019-02-25T19:54:34.108Z,14.73
2019-02-25T19:57:04.448Z,15.23
2019-02-25T19:59:36.344Z,14.63
2019-02-25T20:02:08.243Z,14.97
2019-02-25T20:04:40.578Z,13.17
2019-02-25T20:07:15.992Z,17.10
2019-02-25T20:09:47.436Z,17.50
2019-02-25T20:12:20.951Z,17.87
2019-02-25T20:14:52.707Z,16.70
2019-02-25T20:17:26.596Z,15.40
2019-02-25T20:19:58.290Z,14.67
2019-02-25T20:22:30.564Z,15.43
2019-02-25T20:25:04.894Z,15.07
2019-02-25T20:27:37.211Z,16.13
2019-02-25T20:30:11.442Z,16.57
2019-02-25T20:32:43.301Z,16.10
2019-02-25T20:35:15.755Z,16.60
2019-02-25T20:37:51.102Z,18.27
2019-02-25T20:40:24.115Z,19.13
2019-02-25T20:42:58.159Z,20.17
2019-02-25T20:45:31.064Z,19.60
2019-02-25T20:48:03.822Z,19.63
2019-02-25T20:50:35.766Z,20.40
2019-02-25T20:53:09.181Z,19.13
2019-02-25T20:55:42.888Z,20.73
2019-02-25T20:58:16.872Z,21.50
2019-02-25T21:00:49.163Z,17.93
2019-02-25T21:03:23.245Z,17.77
2019-02-25T21:05:55.537Z,17.57
2019-02-25T21:08:27.346Z,19.23
2019-02-25T21:11:01.088Z,20.27
2019-02-25T21:13:33.561Z,19.13
2019-02-25T21:16:09.864Z,20.87
2019-02-25T21:18:39.917Z,21.90
2019-02-25T21:21:13.890Z,22.80
2019-02-25T21:23:45.277Z,21.20
2019-02-25T21:26:17.048Z,21.77
2019-02-25T21:28:48.785Z,22.10
2019-02-25T21:31:21.391Z,22.20
2019-02-25T21:33:54.320Z,21.17
2019-02-25T21:36:29.512Z,21.50
2019-02-25T21:39:01.325Z,20.67
2019-02-25T21:41:34.856Z,20.70
2019-02-25T21:44:06.610Z,20.20
2019-02-25T21:46:38.381Z,18.63
2019-02-25T21:49:10.181Z,20.83
2019-02-25T21:51:43.667Z,20.20
2019-02-25T21:54:15.583Z,21.53
2019-02-25T21:56:47.564Z,23.50
2019-02-25T21:59:19.312Z,19.13
2019-02-25T22:01:52.834Z,20.67
2019-02-25T22:04:24.853Z,21.00
2019-02-25T23:30:28.076Z,17.03
2019-02-25T23:32:59.854Z,15.80
2019-02-25T23:35:31.549Z,17.73
2019-02-25T23:38:03.355Z,17.33
2019-02-25T23:40:35.970Z,16.67
2019-02-25T23:43:10.154Z,17.13
2019-02-25T23:45:44.208Z,18.03
2019-02-25T23:48:15.898Z,18.67
2019-02-25T23:50:48.497Z,18.30
2019-02-25T23:53:21.323Z,17.63
2019-02-25T23:55:54.426Z,18.17
2019-02-25T23:58:26.710Z,18.00
